Time;durP1;ratioP1;P1;durP2;ratioP2;P2;SDS_P1;SDS_P2;PMS_P1;PMS_P2;Temp;Humidity;BMP_temperature;BMP_pressure;BME280_temperature;BME280_humidity;BME280_pressure;Samples;Min_cycle;Max_cycle;Signal;HPM_P1;HPM_P2
2023/09/23 00:01:13;;;;;;;21.63;13.77;;;;;;;;;;5040157;28;20116;-59
2023/09/23 00:03:39;;;;;;;21.25;12.40;;;;;;;;;;5037074;28;20111;-59
2023/09/23 00:06:04;;;;;;;16.77;7.90;;;;;;;;;;5043650;28;20083;-59
2023/09/23 00:08:30;;;;;;;15.85;8.25;;;;;;;;;;5044812;28;20052;-58
2023/09/23 00:10:55;;;;;;;14.07;7.10;;;;;;;;;;5045289;28;20037;-59
2023/09/23 00:13:21;;;;;;;14.47;6.53;;;;;;;;;;5045515;28;20390;-59
2023/09/23 00:15:47;;;;;;;14.07;6.35;;;;;;;;;;5045360;28;20687;-59
2023/09/23 00:18:17;;;;;;;15.43;6.47;;;;;;;;;;5023461;28;20049;-58
2023/09/23 00:20:42;;;;;;;13.48;5.65;;;;;;;;;;5037716;28;20129;-59
2023/09/23 00:23:08;;;;;;;10.50;5.75;;;;;;;;;;5044936;28;20597;-58
2023/09/23 00:25:36;;;;;;;13.60;6.10;;;;;;;;;;5045067;28;20063;-59
2023/09/23 00:28:02;;;;;;;12.00;5.60;;;;;;;;;;5044447;28;20033;-57
2023/09/23 00:30:27;;;;;;;11.57;5.47;;;;;;;;;;5045253;28;20092;-59
2023/09/23 00:32:52;;;;;;;16.27;5.93;;;;;;;;;;5041381;28;20174;-59
2023/09/23 00:35:18;;;;;;;13.60;5.73;;;;;;;;;;5045095;28;20029;-62
2023/09/23 00:37:45;;;;;;;12.90;6.15;;;;;;;;;;5044714;28;20983;-60
2023/09/23 00:40:18;;;;;;;15.02;5.57;;;;;;;;;;5045140;28;20037;-59
2023/09/23 00:42:49;;;;;;;15.63;6.22;;;;;;;;;;5041302;28;20021;-59
2023/09/23 00:45:19;;;;;;;14.68;5.28;;;;;;;;;;5045753;28;20677;-59
2023/09/23 00:47:45;;;;;;;9.63;4.70;;;;;;;;;;5044264;28;20033;-58
2023/09/23 00:50:17;;;;;;;8.90;4.70;;;;;;;;;;5023185;28;20371;-59
2023/09/23 00:52:42;;;;;;;11.80;4.97;;;;;;;;;;5025343;28;20049;-59
2023/09/23 00:55:07;;;;;;;10.13;4.97;;;;;;;;;;5044042;28;20059;-59
2023/09/23 00:57:33;;;;;;;13.70;4.97;;;;;;;;;;5042444;28;20078;-59
2023/09/23 00:59:59;;;;;;;11.50;4.85;;;;;;;;;;5043399;28;20021;-58
2023/09/23 01:02:24;;;;;;;17.40;4.90;;;;;;;;;;5039974;28;20169;-59
2023/09/23 01:04:50;;;;;;;12.40;5.30;;;;;;;;;;5047840;28;20025;-59
2023/09/23 01:07:15;;;;;;;12.23;4.55;;;;;;;;;;5048277;28;20693;-58
2023/09/23 01:09:41;;;;;;;11.85;4.88;;;;;;;;;;5039055;28;20067;-60
2023/09/23 01:12:08;;;;;;;9.55;4.20;;;;;;;;;;5046676;28;20080;-58
2023/09/23 01:14:34;;;;;;;12.13;5.38;;;;;;;;;;5046780;28;20021;-61
2023/09/23 01:17:01;;;;;;;13.30;5.30;;;;;;;;;;5048426;28;20025;-60
2023/09/23 01:19:26;;;;;;;11.52;5.32;;;;;;;;;;5047003;28;20268;-59
2023/09/23 01:21:56;;;;;;;9.82;5.13;;;;;;;;;;5038903;28;20095;-59
2023/09/23 01:24:21;;;;;;;12.70;4.60;;;;;;;;;;5039122;28;20024;-59
2023/09/23 01:26:51;;;;;;;9.40;4.18;;;;;;;;;;5048191;28;20359;-59
2023/09/23 01:29:23;;;;;;;12.93;4.35;;;;;;;;;;5043168;28;20029;-60
2023/09/23 01:32:17;;;;;;;12.13;4.72;;;;;;;;;;5047950;28;20372;-59
2023/09/23 01:34:43;;;;;;;10.65;4.55;;;;;;;;;;5030127;28;20057;-58
2023/09/23 01:37:09;;;;;;;10.60;4.40;;;;;;;;;;5032270;28;20040;-59
2023/09/23 01:39:34;;;;;;;12.88;4.43;;;;;;;;;;5048231;28;20036;-59
2023/09/23 01:42:00;;;;;;;8.90;4.28;;;;;;;;;;5047794;28;20136;-58
2023/09/23 01:44:25;;;;;;;10.07;4.47;;;;;;;;;;5047356;28;20264;-58
2023/09/23 01:46:50;;;;;;;8.87;4.23;;;;;;;;;;5048037;28;20078;-60
2023/09/23 01:49:16;;;;;;;15.33;4.50;;;;;;;;;;5047124;28;20882;-59
2023/09/23 01:51:41;;;;;;;11.13;4.20;;;;;;;;;;5047580;28;20275;-59
2023/09/23 01:54:07;;;;;;;11.05;4.25;;;;;;;;;;5047604;28;20104;-59
2023/09/23 01:56:34;;;;;;;10.27;4.35;;;;;;;;;;5046720;28;20053;-58
2023/09/23 01:58:59;;;;;;;13.80;4.50;;;;;;;;;;5046593;28;20449;-57
2023/09/23 02:01:24;;;;;;;11.30;4.57;;;;;;;;;;5038733;28;20120;-58
2023/09/23 02:03:51;;;;;;;12.60;4.17;;;;;;;;;;5030416;28;20107;-58
2023/09/23 02:06:17;;;;;;;13.27;4.70;;;;;;;;;;5047511;28;20651;-59
2023/09/23 02:08:42;;;;;;;9.43;4.10;;;;;;;;;;5047178;28;20037;-57
2023/09/23 02:11:07;;;;;;;9.85;4.30;;;;;;;;;;5034642;28;20040;-58
2023/09/23 02:13:36;;;;;;;10.10;4.13;;;;;;;;;;5046711;28;20518;-58
2023/09/23 02:16:04;;;;;;;9.15;4.70;;;;;;;;;;5046505;28;20322;-59
2023/09/23 02:18:29;;;;;;;12.98;4.60;;;;;;;;;;5045824;28;20033;-59
2023/09/23 02:20:55;;;;;;;13.23;4.80;;;;;;;;;;5047780;28;20081;-59
2023/09/23 02:23:21;;;;;;;11.70;4.18;;;;;;;;;;5028240;28;20280;-60
2023/09/23 02:25:47;;;;;;;9.07;4.07;;;;;;;;;;5042892;28;20037;-60
2023/09/23 02:28:12;;;;;;;12.85;4.70;;;;;;;;;;5045159;28;20035;-58
2023/09/23 02:30:37;;;;;;;13.02;4.30;;;;;;;;;;5040989;28;20108;-57
2023/09/23 02:33:03;;;;;;;11.73;4.30;;;;;;;;;;5046550;28;20515;-58
2023/09/23 02:35:28;;;;;;;6.88;3.88;;;;;;;;;;5046816;28;20287;-58
2023/09/23 02:37:54;;;;;;;7.85;3.95;;;;;;;;;;5045626;28;20777;-58
2023/09/23 02:40:20;;;;;;;11.85;4.65;;;;;;;;;;5046645;28;20033;-60
2023/09/23 02:42:46;;;;;;;13.30;4.90;;;;;;;;;;5046306;28;20055;-58
2023/09/23 02:45:12;;;;;;;12.45;4.97;;;;;;;;;;5046834;28;20099;-59
2023/09/23 02:47:38;;;;;;;12.57;4.85;;;;;;;;;;5046924;28;20088;-58
2023/09/23 02:50:13;;;;;;;11.93;4.38;;;;;;;;;;5045988;28;20430;-58
2023/09/23 02:52:39;;;;;;;10.27;4.55;;;;;;;;;;5041318;28;20167;-57
2023/09/23 02:55:07;;;;;;;12.57;4.97;;;;;;;;;;5035460;28;20255;-58
2023/09/23 02:57:35;;;;;;;12.25;4.60;;;;;;;;;;5045044;28;20075;-58
2023/09/23 03:00:10;;;;;;;11.43;4.20;;;;;;;;;;5044584;28;20037;-59
2023/09/23 03:02:38;;;;;;;12.55;5.05;;;;;;;;;;5043155;28;20041;-58
2023/09/23 03:05:07;;;;;;;10.27;4.50;;;;;;;;;;5046501;28;20084;-59
2023/09/23 03:07:33;;;;;;;10.73;4.30;;;;;;;;;;5047147;28;20033;-59
2023/09/23 03:10:00;;;;;;;14.18;5.00;;;;;;;;;;5046850;28;20270;-59
2023/09/23 03:12:26;;;;;;;15.05;6.15;;;;;;;;;;5038986;28;20103;-59
2023/09/23 03:14:52;;;;;;;9.27;5.00;;;;;;;;;;5031943;28;20456;-59
2023/09/23 03:17:21;;;;;;;12.80;4.70;;;;;;;;;;5046068;28;20044;-59
2023/09/23 03:19:50;;;;;;;11.30;4.97;;;;;;;;;;5045861;28;20048;-60
2023/09/23 03:22:15;;;;;;;10.85;5.13;;;;;;;;;;5045763;28;20422;-59
2023/09/23 03:24:41;;;;;;;10.50;5.30;;;;;;;;;;5045621;28;20037;-59
2023/09/23 03:27:06;;;;;;;10.60;5.13;;;;;;;;;;5044624;28;20399;-59
2023/09/23 03:29:32;;;;;;;11.75;4.68;;;;;;;;;;5043118;28;20279;-59
2023/09/23 03:31:58;;;;;;;12.60;4.75;;;;;;;;;;5045412;28;20052;-58
2023/09/23 03:34:23;;;;;;;8.80;4.38;;;;;;;;;;5042373;28;20538;-59
2023/09/23 03:36:51;;;;;;;11.68;4.70;;;;;;;;;;5027983;28;20114;-58
2023/09/23 03:39:17;;;;;;;13.63;5.28;;;;;;;;;;5034660;28;20159;-58
2023/09/23 03:41:46;;;;;;;10.18;4.53;;;;;;;;;;5045163;28;20512;-58
2023/09/23 03:44:14;;;;;;;12.20;4.82;;;;;;;;;;5044997;28;20033;-58
2023/09/23 03:46:40;;;;;;;15.00;5.63;;;;;;;;;;5043699;28;20437;-58
2023/09/23 03:49:05;;;;;;;12.25;5.50;;;;;;;;;;5045232;28;20033;-59
2023/09/23 03:51:31;;;;;;;10.95;5.30;;;;;;;;;;5044224;28;20078;-58
2023/09/23 03:53:56;;;;;;;12.90;5.88;;;;;;;;;;5045454;28;20054;-58
2023/09/23 03:56:27;;;;;;;11.60;4.93;;;;;;;;;;5041605;28;20021;-58
2023/09/23 03:58:54;;;;;;;11.82;5.45;;;;;;;;;;5029876;28;20119;-58
2023/09/23 04:01:20;;;;;;;13.10;5.15;;;;;;;;;;5038212;28;20092;-58
2023/09/23 04:03:45;;;;;;;10.20;4.70;;;;;;;;;;5043643;28;20067;-58
2023/09/23 04:06:11;;;;;;;10.03;4.23;;;;;;;;;;5043509;28;20029;-58
2023/09/23 04:08:36;;;;;;;16.65;5.60;;;;;;;;;;5044946;28;20255;-58
2023/09/23 04:11:05;;;;;;;11.13;4.70;;;;;;;;;;5043610;28;20396;-58
2023/09/23 04:13:31;;;;;;;15.80;5.18;;;;;;;;;;5045099;28;20048;-57
2023/09/23 04:16:00;;;;;;;11.35;5.07;;;;;;;;;;5045441;28;20433;-58
2023/09/23 04:18:26;;;;;;;9.80;4.73;;;;;;;;;;5045305;28;20505;-58
2023/09/23 04:20:53;;;;;;;9.60;5.07;;;;;;;;;;5040904;28;20263;-57
2023/09/23 04:23:18;;;;;;;12.05;4.80;;;;;;;;;;5039673;28;20030;-58
2023/09/23 04:25:44;;;;;;;13.90;4.90;;;;;;;;;;5037583;28;20587;-58
2023/09/23 04:28:09;;;;;;;13.63;5.10;;;;;;;;;;5025460;28;20157;-58
2023/09/23 04:30:35;;;;;;;12.90;5.17;;;;;;;;;;5041167;28;20087;-58
2023/09/23 04:33:02;;;;;;;12.65;4.72;;;;;;;;;;5043715;28;20814;-58
2023/09/23 04:35:29;;;;;;;11.70;4.82;;;;;;;;;;5045037;28;20029;-58
2023/09/23 04:37:54;;;;;;;9.35;4.95;;;;;;;;;;5045508;28;20053;-58
2023/09/23 04:40:19;;;;;;;11.88;4.65;;;;;;;;;;5048600;28;20130;-59
2023/09/23 04:42:45;;;;;;;12.25;4.82;;;;;;;;;;5049174;28;20041;-58
2023/09/23 04:45:11;;;;;;;14.20;5.35;;;;;;;;;;5043930;28;20489;-60
2023/09/23 04:47:36;;;;;;;12.75;4.75;;;;;;;;;;5049060;28;20044;-59
2023/09/23 04:50:05;;;;;;;13.45;4.85;;;;;;;;;;5049038;28;20029;-58
2023/09/23 04:52:33;;;;;;;11.57;4.95;;;;;;;;;;5048818;28;20599;-59
2023/09/23 04:54:58;;;;;;;9.88;5.13;;;;;;;;;;5047429;28;20091;-58
2023/09/23 04:57:23;;;;;;;13.55;5.38;;;;;;;;;;5031011;28;20497;-58
2023/09/23 04:59:49;;;;;;;12.30;5.32;;;;;;;;;;5036198;28;20048;-57
2023/09/23 05:02:15;;;;;;;11.00;5.50;;;;;;;;;;5036096;28;20563;-58
2023/09/23 05:04:40;;;;;;;12.70;5.07;;;;;;;;;;5047865;28;20390;-59
2023/09/23 05:07:06;;;;;;;11.70;5.13;;;;;;;;;;5043482;28;20112;-59
2023/09/23 05:09:31;;;;;;;12.70;5.18;;;;;;;;;;5047664;28;20271;-59
2023/09/23 05:11:57;;;;;;;16.52;7.72;;;;;;;;;;5047865;28;20438;-59
2023/09/23 05:14:23;;;;;;;13.93;5.53;;;;;;;;;;5048223;28;20038;-59
2023/09/23 05:16:50;;;;;;;14.05;5.95;;;;;;;;;;5048789;28;20033;-59
2023/09/23 05:19:16;;;;;;;12.43;5.80;;;;;;;;;;5047215;28;20071;-59
2023/09/23 05:21:42;;;;;;;11.25;5.43;;;;;;;;;;5048265;28;20033;-59
2023/09/23 05:24:09;;;;;;;13.57;6.00;;;;;;;;;;5047674;28;20057;-59
2023/09/23 05:26:35;;;;;;;12.02;5.78;;;;;;;;;;5047189;28;20311;-59
2023/09/23 05:29:00;;;;;;;12.48;5.53;;;;;;;;;;5034056;28;20361;-59
2023/09/23 05:31:25;;;;;;;14.68;5.25;;;;;;;;;;5046204;28;20044;-59
2023/09/23 05:33:50;;;;;;;13.87;4.73;;;;;;;;;;5048303;28;20509;-59
2023/09/23 05:36:17;;;;;;;12.80;5.37;;;;;;;;;;5048162;28;20293;-59
2023/09/23 05:38:42;;;;;;;13.77;5.60;;;;;;;;;;5048354;28;20318;-59
2023/09/23 05:41:08;;;;;;;11.63;5.88;;;;;;;;;;5047138;28;20033;-59
2023/09/23 05:43:33;;;;;;;15.83;5.47;;;;;;;;;;5041227;28;20033;-59
2023/09/23 05:46:01;;;;;;;12.88;4.95;;;;;;;;;;5047908;28;20321;-58
2023/09/23 05:48:27;;;;;;;12.98;6.15;;;;;;;;;;5047267;28;20636;-58
2023/09/23 05:51:01;;;;;;;14.48;5.75;;;;;;;;;;5041445;28;20125;-59
2023/09/23 05:53:27;;;;;;;14.85;5.50;;;;;;;;;;5047030;28;20537;-58
2023/09/23 05:55:52;;;;;;;15.10;5.73;;;;;;;;;;5046010;28;20131;-59
2023/09/23 05:58:17;;;;;;;12.17;5.20;;;;;;;;;;5047382;28;20302;-59
2023/09/23 06:00:42;;;;;;;11.00;5.20;;;;;;;;;;5045608;28;20349;-59
2023/09/23 06:03:08;;;;;;;15.10;5.72;;;;;;;;;;5042716;28;20287;-58
2023/09/23 06:05:33;;;;;;;13.95;5.55;;;;;;;;;;5047331;28;20036;-58
2023/09/23 06:07:58;;;;;;;15.17;5.70;;;;;;;;;;5047461;28;20056;-57
2023/09/23 06:10:24;;;;;;;14.65;5.63;;;;;;;;;;5046488;28;20349;-58
2023/09/23 06:12:49;;;;;;;16.98;5.78;;;;;;;;;;5039732;28;20037;-58
2023/09/23 06:15:15;;;;;;;15.00;6.20;;;;;;;;;;5047264;28;20102;-56
2023/09/23 06:17:40;;;;;;;16.15;5.80;;;;;;;;;;5047549;28;20072;-57
2023/09/23 06:20:06;;;;;;;15.85;6.07;;;;;;;;;;5046908;28;20037;-58
2023/09/23 06:22:32;;;;;;;13.75;6.03;;;;;;;;;;5045777;28;20055;-57
2023/09/23 06:24:58;;;;;;;12.00;5.88;;;;;;;;;;5040027;28;20029;-57
2023/09/23 06:27:23;;;;;;;14.07;6.17;;;;;;;;;;5030139;28;20052;-56
2023/09/23 06:29:48;;;;;;;16.05;6.00;;;;;;;;;;5029208;28;21112;-56
2023/09/23 06:32:13;;;;;;;14.17;6.37;;;;;;;;;;5046638;28;20345;-58
2023/09/23 06:34:39;;;;;;;12.83;5.60;;;;;;;;;;5046792;28;20680;-58
2023/09/23 06:37:04;;;;;;;13.15;5.18;;;;;;;;;;5046921;28;20279;-57
2023/09/23 06:39:29;;;;;;;14.75;6.40;;;;;;;;;;5046628;28;20514;-61
2023/09/23 06:41:55;;;;;;;16.20;6.57;;;;;;;;;;5037768;28;20813;-57
2023/09/23 06:44:20;;;;;;;17.73;6.68;;;;;;;;;;5030051;28;20036;-57
2023/09/23 06:46:45;;;;;;;11.45;5.88;;;;;;;;;;5030491;28;20033;-57
2023/09/23 06:49:11;;;;;;;14.50;6.40;;;;;;;;;;5031033;28;20177;-58
2023/09/23 06:51:36;;;;;;;13.32;6.35;;;;;;;;;;5031045;28;21164;-59
2023/09/23 06:54:01;;;;;;;15.18;6.30;;;;;;;;;;5033440;28;20059;-59
2023/09/23 06:56:27;;;;;;;13.38;5.63;;;;;;;;;;5030032;28;20162;-58
2023/09/23 06:58:52;;;;;;;20.73;6.55;;;;;;;;;;5017605;28;20041;-59
2023/09/23 07:01:17;;;;;;;14.07;5.63;;;;;;;;;;5031113;28;20543;-63
2023/09/23 07:03:43;;;;;;;13.32;6.55;;;;;;;;;;5019103;28;20407;-59
2023/09/23 07:06:08;;;;;;;15.85;6.68;;;;;;;;;;5030132;28;20136;-57
2023/09/23 07:08:33;;;;;;;16.70;6.65;;;;;;;;;;5028539;28;20107;-58
2023/09/23 07:10:59;;;;;;;13.00;6.18;;;;;;;;;;5030074;28;20126;-56
2023/09/23 07:13:24;;;;;;;15.13;6.30;;;;;;;;;;5031992;28;20069;-58
2023/09/23 07:15:49;;;;;;;11.63;6.32;;;;;;;;;;5031219;28;20855;-56
2023/09/23 07:18:14;;;;;;;16.08;6.28;;;;;;;;;;5031810;28;20040;-56
2023/09/23 07:20:40;;;;;;;13.60;6.20;;;;;;;;;;5031068;28;20041;-56
2023/09/23 07:23:05;;;;;;;13.35;5.47;;;;;;;;;;5031611;28;20303;-58
2023/09/23 07:25:36;;;;;;;17.38;6.43;;;;;;;;;;5031398;28;20036;-55
2023/09/23 07:28:03;;;;;;;14.35;6.45;;;;;;;;;;5035131;28;20655;-57
2023/09/23 07:30:28;;;;;;;13.90;6.53;;;;;;;;;;5030206;28;20167;-55
2023/09/23 07:32:53;;;;;;;15.90;6.10;;;;;;;;;;5029290;28;20045;-56
2023/09/23 07:35:18;;;;;;;17.77;5.65;;;;;;;;;;5031281;28;20044;-55
2023/09/23 07:37:44;;;;;;;15.73;6.87;;;;;;;;;;5031438;28;20029;-56
2023/09/23 07:40:10;;;;;;;16.13;6.25;;;;;;;;;;5030571;28;20291;-56
2023/09/23 07:42:35;;;;;;;16.38;6.50;;;;;;;;;;5031079;28;20449;-57
2023/09/23 07:45:00;;;;;;;20.20;6.20;;;;;;;;;;5030490;28;20430;-56
2023/09/23 07:47:26;;;;;;;12.07;5.80;;;;;;;;;;5030379;28;20124;-56
2023/09/23 07:49:51;;;;;;;15.30;5.70;;;;;;;;;;5033942;28;20420;-56
2023/09/23 07:52:17;;;;;;;14.05;5.93;;;;;;;;;;5030620;28;20025;-57
2023/09/23 07:54:42;;;;;;;14.38;5.72;;;;;;;;;;5034737;28;20033;-57
2023/09/23 07:57:07;;;;;;;16.57;5.30;;;;;;;;;;5031964;28;20037;-56
2023/09/23 07:59:32;;;;;;;14.40;5.60;;;;;;;;;;5030731;28;22699;-56
2023/09/23 08:01:58;;;;;;;18.07;6.40;;;;;;;;;;5031548;28;20094;-56
2023/09/23 08:04:23;;;;;;;10.93;5.73;;;;;;;;;;5029809;28;20378;-57
2023/09/23 08:06:48;;;;;;;16.15;6.18;;;;;;;;;;5030688;28;20357;-56
2023/09/23 08:09:14;;;;;;;12.20;5.43;;;;;;;;;;5030405;28;20061;-57
2023/09/23 08:11:40;;;;;;;13.57;5.70;;;;;;;;;;5030297;28;20287;-57
2023/09/23 08:14:05;;;;;;;14.52;5.50;;;;;;;;;;5029806;28;20041;-56
2023/09/23 08:16:30;;;;;;;16.10;5.60;;;;;;;;;;5030450;28;20037;-55
2023/09/23 08:18:56;;;;;;;12.63;5.75;;;;;;;;;;5030548;28;20029;-58
2023/09/23 08:21:21;;;;;;;14.25;5.22;;;;;;;;;;5031294;28;20132;-57
2023/09/23 08:23:46;;;;;;;11.02;5.35;;;;;;;;;;5030389;28;20037;-56
2023/09/23 08:26:11;;;;;;;13.60;5.40;;;;;;;;;;5030626;28;20557;-55
2023/09/23 08:28:37;;;;;;;11.20;5.13;;;;;;;;;;5030536;28;20292;-55
2023/09/23 08:31:02;;;;;;;14.40;5.70;;;;;;;;;;5030897;28;20117;-55
2023/09/23 08:33:27;;;;;;;13.53;5.50;;;;;;;;;;5030558;28;20322;-56
2023/09/23 08:35:53;;;;;;;10.98;5.10;;;;;;;;;;5029981;28;20295;-57
2023/09/23 08:38:18;;;;;;;15.32;5.18;;;;;;;;;;5030299;28;20030;-58
2023/09/23 08:40:46;;;;;;;13.93;5.43;;;;;;;;;;5030663;28;20044;-57
2023/09/23 08:43:11;;;;;;;17.70;5.50;;;;;;;;;;5033487;28;20811;-56
2023/09/23 08:45:40;;;;;;;11.68;5.20;;;;;;;;;;5030209;28;20048;-57
2023/09/23 08:48:06;;;;;;;12.53;5.23;;;;;;;;;;5030380;28;20034;-58
2023/09/23 08:50:32;;;;;;;11.57;5.25;;;;;;;;;;5029501;28;20582;-56
2023/09/23 08:52:58;;;;;;;14.10;5.33;;;;;;;;;;5029818;28;20131;-57
2023/09/23 08:55:24;;;;;;;12.23;5.22;;;;;;;;;;5033672;28;20570;-58
2023/09/23 08:57:50;;;;;;;11.98;5.10;;;;;;;;;;5013383;28;20033;-58
2023/09/23 09:00:17;;;;;;;11.40;5.05;;;;;;;;;;5030023;28;20029;-58
2023/09/23 09:02:42;;;;;;;9.73;5.20;;;;;;;;;;5029497;28;21785;-57
2023/09/23 09:05:09;;;;;;;17.83;5.75;;;;;;;;;;5030356;28;20042;-57
2023/09/23 09:07:34;;;;;;;14.77;5.15;;;;;;;;;;5037228;28;20067;-56
2023/09/23 09:10:00;;;;;;;17.15;5.57;;;;;;;;;;5040508;28;20514;-56
2023/09/23 09:12:25;;;;;;;15.90;4.80;;;;;;;;;;5032585;28;20048;-57
2023/09/23 09:14:51;;;;;;;12.43;4.50;;;;;;;;;;5037163;28;20116;-57
2023/09/23 09:17:17;;;;;;;12.63;4.82;;;;;;;;;;5038552;28;20362;-57
2023/09/23 09:19:42;;;;;;;15.85;5.22;;;;;;;;;;5032356;28;20041;-56
2023/09/23 09:22:07;;;;;;;17.70;5.20;;;;;;;;;;5039780;28;20501;-56
2023/09/23 09:24:33;;;;;;;13.73;5.13;;;;;;;;;;5035011;28;20366;-57
2023/09/23 09:26:58;;;;;;;11.90;4.85;;;;;;;;;;5033329;28;20409;-57
2023/09/23 09:29:24;;;;;;;13.60;4.95;;;;;;;;;;5032688;28;20262;-57
2023/09/23 09:31:50;;;;;;;17.40;4.93;;;;;;;;;;5036392;28;20103;-57
2023/09/23 09:34:16;;;;;;;11.98;4.45;;;;;;;;;;5035364;28;20435;-56
2023/09/23 09:36:41;;;;;;;16.33;5.50;;;;;;;;;;5033379;28;20170;-56
2023/09/23 09:39:10;;;;;;;14.02;4.60;;;;;;;;;;5032582;28;20296;-56
2023/09/23 09:41:51;;;;;;;10.65;4.40;;;;;;;;;;5031724;28;20033;-57
2023/09/23 09:44:16;;;;;;;12.70;4.65;;;;;;;;;;5032401;28;20525;-57
2023/09/23 09:46:44;;;;;;;12.40;4.78;;;;;;;;;;5032673;28;20037;-57
2023/09/23 09:49:10;;;;;;;13.02;4.80;;;;;;;;;;5031645;28;20085;-58
2023/09/23 09:51:35;;;;;;;14.90;4.88;;;;;;;;;;5032315;28;20048;-57
2023/09/23 09:54:02;;;;;;;13.25;4.70;;;;;;;;;;5031040;28;20041;-57
2023/09/23 09:56:27;;;;;;;10.70;4.00;;;;;;;;;;5035459;28;20075;-56
2023/09/23 09:58:53;;;;;;;11.23;4.10;;;;;;;;;;5047905;28;20535;-57
2023/09/23 10:01:19;;;;;;;14.85;4.53;;;;;;;;;;5035718;28;20052;-57
2023/09/23 10:03:45;;;;;;;12.67;4.40;;;;;;;;;;5031827;28;20163;-58
2023/09/23 10:06:15;;;;;;;14.05;4.15;;;;;;;;;;5028891;28;20311;-57
2023/09/23 10:08:44;;;;;;;14.57;4.68;;;;;;;;;;5035470;28;20143;-56
2023/09/23 10:11:09;;;;;;;16.08;4.80;;;;;;;;;;5032118;28;20393;-55
2023/09/23 10:13:35;;;;;;;10.95;3.75;;;;;;;;;;5034823;28;20045;-56
2023/09/23 10:16:12;;;;;;;11.43;3.67;;;;;;;;;;5032292;28;20029;-57
2023/09/23 10:18:39;;;;;;;13.48;4.35;;;;;;;;;;5035835;28;20039;-57
2023/09/23 10:21:05;;;;;;;12.05;3.90;;;;;;;;;;5029509;28;20141;-57
2023/09/23 10:23:36;;;;;;;12.68;3.88;;;;;;;;;;5031154;28;20089;-57
2023/09/23 10:26:13;;;;;;;14.15;4.03;;;;;;;;;;5032184;28;20148;-58
2023/09/23 10:28:38;;;;;;;14.55;4.25;;;;;;;;;;5031085;28;20037;-56
2023/09/23 10:31:04;;;;;;;15.40;4.23;;;;;;;;;;5031825;28;20327;-56
2023/09/23 10:33:30;;;;;;;16.45;3.70;;;;;;;;;;5030695;28;20632;-55
2023/09/23 10:35:56;;;;;;;13.80;4.80;;;;;;;;;;5030428;28;21905;-57
2023/09/23 10:38:30;;;;;;;19.75;4.40;;;;;;;;;;5034273;28;20165;-56
2023/09/23 10:40:56;;;;;;;18.27;4.78;;;;;;;;;;5030614;28;20037;-57
2023/09/23 10:43:23;;;;;;;10.38;3.67;;;;;;;;;;5030993;28;20539;-57
2023/09/23 10:45:53;;;;;;;12.88;3.58;;;;;;;;;;5031883;28;20044;-56
2023/09/23 10:48:18;;;;;;;13.50;3.97;;;;;;;;;;5034487;28;20468;-56
2023/09/23 10:50:43;;;;;;;14.90;4.07;;;;;;;;;;5031208;28;20292;-57
2023/09/23 10:53:08;;;;;;;9.27;3.55;;;;;;;;;;5016929;28;21936;-58
2023/09/23 10:55:34;;;;;;;12.60;4.13;;;;;;;;;;5031137;28;20489;-57
2023/09/23 10:58:00;;;;;;;15.23;4.15;;;;;;;;;;5030259;28;20453;-58
2023/09/23 11:00:25;;;;;;;11.63;3.65;;;;;;;;;;5045523;28;20505;-57
2023/09/23 11:02:51;;;;;;;16.30;4.03;;;;;;;;;;5031228;28;20067;-57
2023/09/23 11:05:17;;;;;;;17.52;3.97;;;;;;;;;;5030279;28;20040;-56
2023/09/23 11:07:42;;;;;;;13.93;4.50;;;;;;;;;;5027651;28;20037;-56
2023/09/23 11:10:11;;;;;;;11.20;3.83;;;;;;;;;;5017522;28;20071;-57
2023/09/23 11:12:36;;;;;;;17.50;3.40;;;;;;;;;;5030797;28;20307;-58
2023/09/23 11:15:02;;;;;;;12.23;4.57;;;;;;;;;;5030407;28;20548;-56
2023/09/23 11:17:30;;;;;;;17.20;4.20;;;;;;;;;;5030736;28;20055;-57
2023/09/23 11:19:56;;;;;;;16.08;4.28;;;;;;;;;;5030623;28;20590;-55
2023/09/23 11:22:22;;;;;;;16.23;3.80;;;;;;;;;;5029120;28;20036;-57
2023/09/23 11:24:48;;;;;;;14.18;4.00;;;;;;;;;;5030641;28;20321;-56
2023/09/23 11:27:13;;;;;;;13.95;3.35;;;;;;;;;;5029887;28;20512;-57
2023/09/23 11:29:39;;;;;;;11.63;3.85;;;;;;;;;;5027652;28;20567;-56
2023/09/23 11:32:04;;;;;;;13.10;4.00;;;;;;;;;;5029840;28;20049;-56
2023/09/23 11:34:30;;;;;;;12.65;4.10;;;;;;;;;;5028605;28;20307;-56
2023/09/23 11:36:55;;;;;;;14.50;4.03;;;;;;;;;;5030111;28;20501;-56
2023/09/23 11:39:20;;;;;;;13.20;3.60;;;;;;;;;;5030091;28;20543;-58
2023/09/23 11:41:46;;;;;;;12.37;3.67;;;;;;;;;;5030110;28;20110;-58
2023/09/23 11:44:11;;;;;;;12.57;3.55;;;;;;;;;;5029733;28;20846;-56
2023/09/23 11:46:36;;;;;;;14.07;3.60;;;;;;;;;;5029249;28;20033;-57
2023/09/23 11:49:02;;;;;;;19.85;4.22;;;;;;;;;;5028005;28;20590;-56
2023/09/23 11:51:27;;;;;;;14.77;3.63;;;;;;;;;;5029135;28;20272;-57
2023/09/23 11:53:52;;;;;;;16.02;3.58;;;;;;;;;;5029444;28;20775;-57
2023/09/23 11:56:17;;;;;;;13.83;3.80;;;;;;;;;;5029235;28;20041;-56
2023/09/23 11:58:43;;;;;;;17.53;3.63;;;;;;;;;;5029786;28;20295;-56
2023/09/23 12:01:08;;;;;;;10.63;3.80;;;;;;;;;;5029514;28;20428;-57
2023/09/23 12:03:33;;;;;;;15.90;3.70;;;;;;;;;;5029444;28;21387;-57
2023/09/23 12:05:58;;;;;;;15.43;3.67;;;;;;;;;;5029485;28;20037;-57
2023/09/23 12:08:24;;;;;;;17.60;3.80;;;;;;;;;;5029426;28;20865;-56
2023/09/23 12:10:49;;;;;;;17.02;3.85;;;;;;;;;;5030019;28;20383;-56
2023/09/23 12:13:14;;;;;;;16.77;3.90;;;;;;;;;;5028516;28;20721;-56
2023/09/23 12:15:40;;;;;;;17.07;3.63;;;;;;;;;;5029495;28;20490;-57
2023/09/23 12:18:06;;;;;;;15.07;3.72;;;;;;;;;;5029274;28;20291;-57
2023/09/23 12:20:32;;;;;;;12.60;3.50;;;;;;;;;;5030130;28;20548;-56
2023/09/23 12:22:58;;;;;;;16.42;3.83;;;;;;;;;;5030599;28;20044;-56
2023/09/23 12:25:24;;;;;;;19.48;4.18;;;;;;;;;;5036132;28;20494;-56
2023/09/23 12:27:49;;;;;;;19.53;4.33;;;;;;;;;;5034662;28;20442;-56
2023/09/23 12:30:17;;;;;;;18.77;4.00;;;;;;;;;;5031058;28;20295;-56
2023/09/23 12:32:42;;;;;;;16.10;4.00;;;;;;;;;;5032766;28;20404;-56
2023/09/23 12:35:09;;;;;;;16.60;3.80;;;;;;;;;;5035104;28;20108;-57
2023/09/23 12:37:34;;;;;;;15.40;4.15;;;;;;;;;;5036940;28;20053;-57
2023/09/23 12:40:00;;;;;;;15.77;3.87;;;;;;;;;;5037315;28;20033;-57
2023/09/23 12:42:25;;;;;;;17.50;3.67;;;;;;;;;;5032076;28;20319;-57
2023/09/23 12:44:50;;;;;;;12.57;3.47;;;;;;;;;;5033209;28;20863;-56
2023/09/23 12:47:16;;;;;;;10.93;3.05;;;;;;;;;;5035873;28;20322;-57
2023/09/23 12:49:43;;;;;;;16.27;4.05;;;;;;;;;;5036340;28;20038;-56
2023/09/23 12:52:09;;;;;;;15.80;3.47;;;;;;;;;;5030276;28;20037;-56
2023/09/23 12:54:34;;;;;;;14.68;3.75;;;;;;;;;;5034807;28;20785;-56
2023/09/23 12:56:59;;;;;;;14.60;4.13;;;;;;;;;;5039282;28;20139;-56
2023/09/23 12:59:25;;;;;;;17.33;3.80;;;;;;;;;;5033540;28;20287;-56
2023/09/23 13:01:50;;;;;;;19.27;4.07;;;;;;;;;;5037903;28;20795;-56
2023/09/23 13:04:15;;;;;;;16.80;3.60;;;;;;;;;;5037640;28;20511;-55
2023/09/23 13:06:41;;;;;;;20.33;4.22;;;;;;;;;;5043235;28;20811;-55
2023/09/23 13:09:06;;;;;;;18.67;4.03;;;;;;;;;;5040644;28;20084;-57
2023/09/23 13:11:31;;;;;;;16.60;3.67;;;;;;;;;;5034851;28;20047;-57
2023/09/23 13:13:57;;;;;;;15.13;3.30;;;;;;;;;;5026106;28;20425;-58
2023/09/23 13:16:22;;;;;;;19.05;5.18;;;;;;;;;;5034003;28;20136;-57
2023/09/23 13:18:47;;;;;;;19.63;4.50;;;;;;;;;;5036403;28;20167;-57
2023/09/23 13:21:12;;;;;;;16.00;4.53;;;;;;;;;;5040912;28;20984;-57
2023/09/23 13:23:40;;;;;;;20.07;4.07;;;;;;;;;;5036190;28;20283;-57
2023/09/23 13:26:06;;;;;;;20.35;4.15;;;;;;;;;;5036643;28;20292;-57
2023/09/23 13:28:31;;;;;;;22.35;4.93;;;;;;;;;;5035463;28;20033;-57
2023/09/23 13:30:57;;;;;;;20.77;4.10;;;;;;;;;;5037486;28;20401;-57
2023/09/23 13:33:24;;;;;;;21.48;4.55;;;;;;;;;;5033951;28;20053;-56
2023/09/23 13:35:50;;;;;;;20.63;4.47;;;;;;;;;;5039702;28;20047;-57
2023/09/23 13:38:15;;;;;;;18.08;4.20;;;;;;;;;;5033402;28;20041;-57
2023/09/23 13:40:40;;;;;;;24.90;4.80;;;;;;;;;;5037164;28;20045;-57
2023/09/23 13:43:06;;;;;;;20.23;4.15;;;;;;;;;;5038512;28;20834;-57
2023/09/23 13:45:31;;;;;;;23.03;4.03;;;;;;;;;;5036161;28;20033;-57
2023/09/23 13:47:56;;;;;;;23.15;5.38;;;;;;;;;;5042672;28;20799;-57
2023/09/23 13:50:22;;;;;;;19.05;4.20;;;;;;;;;;5035872;28;20041;-57
2023/09/23 13:52:47;;;;;;;21.67;4.47;;;;;;;;;;5035412;28;20064;-56
2023/09/23 13:55:12;;;;;;;25.10;4.23;;;;;;;;;;5033930;28;20049;-57
2023/09/23 13:57:37;;;;;;;20.23;4.20;;;;;;;;;;5035807;28;20327;-57
2023/09/23 14:00:04;;;;;;;24.95;4.28;;;;;;;;;;5037983;28;20029;-57
2023/09/23 14:02:29;;;;;;;26.27;4.82;;;;;;;;;;5036890;28;20108;-57
2023/09/23 14:04:55;;;;;;;27.60;4.53;;;;;;;;;;5034764;28;20132;-57
2023/09/23 14:07:20;;;;;;;27.20;4.57;;;;;;;;;;5037742;28;20043;-56
2023/09/23 14:09:45;;;;;;;21.63;4.45;;;;;;;;;;5042041;28;20516;-57
2023/09/23 14:12:11;;;;;;;20.57;4.17;;;;;;;;;;5033877;28;20486;-57
2023/09/23 14:14:36;;;;;;;25.00;4.83;;;;;;;;;;5032460;28;20394;-57
2023/09/23 14:17:01;;;;;;;28.67;5.15;;;;;;;;;;5031925;28;20310;-56
2023/09/23 14:19:26;;;;;;;25.15;4.80;;;;;;;;;;5033318;28;20048;-57
2023/09/23 14:21:52;;;;;;;21.80;4.90;;;;;;;;;;5031513;28;20041;-56
2023/09/23 14:24:17;;;;;;;26.03;4.53;;;;;;;;;;5034166;28;20287;-56